Portada
METAR-TAF:

METAR-TAF

Aeroports :

Mae Hong Son, Tailàndia

latitud: 19-18N, longitud: 097-50E, altitud: 267 m

Observació

L'informe es va fer fa 8 hores i 44 minuts, a les 12:00 UTC
Vent 3 kt del Est/Sud-Est
Temperatura 34°C
Humitat 28%
Pressió 1005 hPa
Visibilitat: 6000 m
Escasses núvols a una alçada de 2500 ft

METAR: VTCH 071200Z 11003KT 6000 FEW025 34/13 Q1005

Hora: 03:44 (20:44 UTC)

Pronòstic

L'informe es va fer fa 3 hores i 44 minuts, a les 17:00 UTC
Pronòstic vàlid del 07 a les 18 UTC al 08 a les 18 UTC
Vent 5 kt del Oest/Sud-Oest
Visibilitat: 6000 m
Escasses núvols a una alçada de 2500 ft
Evolucionant progressivament
l' 07 a les 22 UTC al 07 a les 24 UTC
Visibilitat: 2000 m
calitja
Evolucionant progressivament
l' 08 a les 05 UTC al 08 a les 07 UTC
Visibilitat: 5000 m

TAF: VTCH 071700Z 0718/0818 24005KT 6000 FEW025 BECMG 0722/0724 2000 HZ BECMG 0805/0807 5000

Observacions i pronòstics meteorològics de més de 4000 aeroports (METAR i TAF).

Les estacions disponibles són els punts grocs i vermells al mapa.

Posi el ratolí al punt desitjat per veure el nom de l'estació.

Feu clic per veure les observacions i els pronòstics meteorològics.

Per canviar el mapa: feu clic els botons verds amb una creu de color negre per apropar; al botó verd amb un guió per allunyar la imatge; o en les fletxes verdes per a mapes adjacents.


METAR-TAF: